createdAt,value
2024-05-09T00:00:44.895Z,101483.50
2024-05-09T00:05:46.707Z,101487.88
2024-05-09T00:10:48.432Z,101494.44
2024-05-09T00:15:50.135Z,101493.16
2024-05-09T00:20:52.013Z,101492.38
2024-05-09T00:25:53.666Z,101492.50
2024-05-09T00:30:55.284Z,101494.94
2024-05-09T00:35:56.871Z,101498.25
2024-05-09T00:40:58.498Z,101485.63
2024-05-09T00:46:01.949Z,101495.19
2024-05-09T00:51:04.814Z,101493.28
2024-05-09T00:56:09.728Z,101499.06
2024-05-09T01:01:11.562Z,101514.22
2024-05-09T01:06:13.148Z,101504.22
2024-05-09T01:11:16.446Z,101496.31
2024-05-09T01:16:18.063Z,101506.69
2024-05-09T01:21:19.770Z,101508.47
2024-05-09T01:26:21.451Z,101505.16
2024-05-09T01:31:23.098Z,101507.94
2024-05-09T01:36:24.687Z,101507.03
2024-05-09T01:41:26.407Z,101504.22
2024-05-09T01:46:28.073Z,101502.63
2024-05-09T01:51:29.699Z,101507.03
2024-05-09T01:56:31.337Z,101513.38
2024-05-09T02:01:55.434Z,101516.06
2024-05-09T02:06:54.595Z,101505.44
2024-05-09T02:11:56.353Z,101511.03
2024-05-09T02:16:58.186Z,101520.31
2024-05-09T02:21:59.784Z,101524.81
2024-05-09T02:27:01.368Z,101534.06
2024-05-09T02:32:03.115Z,101520.66
2024-05-09T02:37:04.789Z,101507.03
2024-05-09T02:42:06.412Z,101507.72
2024-05-09T02:47:08.104Z,101509.69
2024-05-09T02:52:09.788Z,101508.22
2024-05-09T02:57:11.378Z,101518.91
2024-05-09T03:02:13.709Z,101510.63
2024-05-09T03:07:15.398Z,101517.09
2024-05-09T03:12:17.023Z,101522.66
2024-05-09T03:17:18.741Z,101522.66
2024-05-09T03:22:20.348Z,101521.53
2024-05-09T03:27:24.151Z,101521.19
2024-05-09T03:32:25.868Z,101522.13
2024-05-09T03:37:27.823Z,101521.78
2024-05-09T03:42:29.413Z,101512.38
2024-05-09T03:47:32.571Z,101516.88
2024-05-09T03:52:34.239Z,101519.66
2024-05-09T03:57:35.865Z,101521.09
2024-05-09T04:02:42.558Z,101527.97
2024-05-09T04:07:44.902Z,101529.16
2024-05-09T04:12:46.525Z,101531.69
2024-05-09T04:17:51.356Z,101531.97
2024-05-09T04:22:53.327Z,101528.09
2024-05-09T04:27:55.968Z,101526.06
2024-05-09T04:32:57.728Z,101533.47
2024-05-09T04:37:59.567Z,101530.63
2024-05-09T04:43:01.381Z,101538.78
2024-05-09T04:48:03.515Z,101541.84
2024-05-09T04:53:06.947Z,101550.75
2024-05-09T04:58:11.539Z,101551.38
2024-05-09T05:03:15.506Z,101545.16
2024-05-09T05:08:19.279Z,101542.09
2024-05-09T05:13:24.653Z,101551.06
2024-05-09T05:18:28.038Z,101547.00
2024-05-09T05:23:30.102Z,101559.94
2024-05-09T05:28:31.818Z,101554.03
2024-05-09T05:33:33.487Z,101553.94
2024-05-09T05:38:35.164Z,101538.94
2024-05-09T05:43:36.754Z,101538.34
2024-05-09T05:48:38.572Z,101548.69
2024-05-09T05:53:40.366Z,101556.22
2024-05-09T05:58:43.214Z,101559.75
2024-05-09T06:03:45.019Z,101562.47
2024-05-09T06:08:46.805Z,101554.81
2024-05-09T06:13:48.486Z,101553.97
2024-05-09T06:18:50.213Z,101553.56
2024-05-09T06:23:53.401Z,101558.53
2024-05-09T06:28:55.164Z,101561.31
2024-05-09T06:33:56.906Z,101550.75
2024-05-09T06:38:58.552Z,101552.72
2024-05-09T06:44:00.322Z,101551.59
2024-05-09T06:49:08.361Z,101554.81
2024-05-09T06:54:10.193Z,101554.31
2024-05-09T06:59:11.845Z,101563.25
2024-05-09T07:04:13.619Z,101561.13
2024-05-09T07:09:15.259Z,101553.00
2024-05-09T07:14:16.929Z,101551.91
2024-05-09T07:19:19.209Z,101546.38
2024-05-09T07:24:20.908Z,101547.63
2024-05-09T07:29:22.701Z,101547.47
2024-05-09T07:34:25.321Z,101552.28
2024-05-09T07:39:27.204Z,101551.81
2024-05-09T07:44:30.518Z,101545.34
2024-05-09T07:54:37.398Z,101530.88
2024-05-09T07:59:39.362Z,101526.72
2024-05-09T08:04:41.271Z,101532.59
2024-05-09T08:09:43.144Z,101531.00
2024-05-09T08:14:44.739Z,101524.78
2024-05-09T08:19:46.425Z,101517.47
2024-05-09T08:24:48.092Z,101513.53
2024-05-09T08:29:49.785Z,101516.78
2024-05-09T08:34:51.500Z,101516.19
2024-05-09T08:39:53.172Z,101511.63
2024-05-09T08:44:54.787Z,101514.03
2024-05-09T08:49:58.790Z,101512.00
2024-05-09T08:55:01.483Z,101521.03
2024-05-09T09:00:09.978Z,101511.34
2024-05-09T09:05:17.217Z,101503.41
2024-05-09T09:10:29.160Z,101508.63
2024-05-09T09:15:33.486Z,101508.91
2024-05-09T09:20:36.853Z,101504.56
2024-05-09T09:25:39.819Z,101502.28
2024-05-09T09:30:42.599Z,101495.75
2024-05-09T09:35:44.287Z,101501.16
2024-05-09T09:40:49.722Z,101501.56
2024-05-09T09:45:53.449Z,101508.94
2024-05-09T09:50:56.609Z,101505.69
2024-05-09T09:55:59.240Z,101495.31
2024-05-09T10:01:00.997Z,101498.75
2024-05-09T10:06:03.858Z,101495.03
2024-05-09T10:11:06.368Z,101493.50
2024-05-09T10:16:10.017Z,101485.38
2024-05-09T10:21:18.627Z,101488.59
2024-05-09T10:26:30.834Z,101486.97
2024-05-09T10:31:32.552Z,101495.84
2024-05-09T10:36:41.910Z,101486.84
2024-05-09T10:41:43.584Z,101487.91
2024-05-09T10:46:46.281Z,101483.91
2024-05-09T10:51:48.717Z,101476.22
2024-05-09T10:56:57.648Z,101463.50
2024-05-09T11:02:02.812Z,101465.91
2024-05-09T11:07:12.068Z,101456.50
2024-05-09T11:12:14.128Z,101459.50
2024-05-09T11:17:15.866Z,101455.44
2024-05-09T11:22:17.782Z,101450.59
2024-05-09T11:27:20.833Z,101444.78
2024-05-09T11:32:29.867Z,101435.03
2024-05-09T11:37:35.302Z,101432.31
2024-05-09T11:42:37.696Z,101426.09
2024-05-09T11:47:39.778Z,101430.72
2024-05-09T11:52:41.567Z,101426.66
2024-05-09T11:57:43.232Z,101420.34
2024-05-09T12:02:44.888Z,101421.25
2024-05-09T12:07:46.502Z,101406.75
2024-05-09T12:12:48.139Z,101411.22
2024-05-09T12:17:50.821Z,101397.19
2024-05-09T12:22:52.777Z,101394.91
2024-05-09T12:27:54.435Z,101389.16
2024-05-09T12:32:56.369Z,101385.97
2024-05-09T12:37:58.158Z,101378.38
2024-05-09T12:42:59.799Z,101364.63
2024-05-09T12:48:01.632Z,101362.47
2024-05-09T12:53:04.299Z,101354.31
2024-05-09T12:58:10.102Z,101355.53
2024-05-09T13:03:12.136Z,101346.38
2024-05-09T13:08:13.944Z,101333.88
2024-05-09T13:13:15.673Z,101330.69
2024-05-09T13:18:20.361Z,101333.63
2024-05-09T13:23:22.161Z,101319.63
2024-05-09T13:28:23.983Z,101330.06
2024-05-09T13:33:25.911Z,101321.50
2024-05-09T13:38:27.784Z,101319.00
2024-05-09T13:43:29.626Z,101306.22
2024-05-09T13:48:31.646Z,101305.75
2024-05-09T13:53:33.319Z,101309.13
2024-05-09T13:58:35.179Z,101300.97
2024-05-09T14:03:37.013Z,101299.19
2024-05-09T14:08:38.744Z,101284.69
2024-05-09T14:13:40.331Z,101287.69
2024-05-09T14:18:41.957Z,101282.47
2024-05-09T14:23:44.471Z,101274.66
2024-05-09T14:28:46.103Z,101268.00
2024-05-09T14:33:47.794Z,101250.66
2024-05-09T14:38:49.479Z,101251.13
2024-05-09T14:43:51.148Z,101247.03
2024-05-09T14:48:52.872Z,101240.31
2024-05-09T14:53:54.513Z,101243.50
2024-05-09T14:58:57.191Z,101236.66
2024-05-09T15:03:58.939Z,101224.63
2024-05-09T15:09:01.874Z,101220.28
2024-05-09T15:14:03.483Z,101211.22
2024-05-09T15:19:05.517Z,101220.69
2024-05-09T15:24:07.200Z,101219.09
2024-05-09T15:29:09.164Z,101212.34
2024-05-09T15:34:10.742Z,101199.56
2024-05-09T15:39:12.582Z,101205.00
2024-05-09T15:44:14.194Z,101190.84
2024-05-09T15:49:15.986Z,101190.56
2024-05-09T15:54:17.731Z,101181.16
2024-05-09T15:59:20.800Z,101187.53
2024-05-09T16:04:22.617Z,101180.47
2024-05-09T16:09:24.480Z,101183.13
2024-05-09T16:14:26.094Z,101167.91
2024-05-09T16:19:27.683Z,101161.47
2024-05-09T16:24:29.268Z,101160.13
2024-05-09T16:29:30.896Z,101153.28
2024-05-09T16:34:32.524Z,101149.66
2024-05-09T16:39:34.184Z,101152.97
2024-05-09T16:44:35.801Z,101148.03
2024-05-09T16:49:37.436Z,101148.59
2024-05-09T16:54:39.068Z,101158.06
2024-05-09T16:59:40.706Z,101158.03
2024-05-09T17:04:43.029Z,101161.63
2024-05-09T17:09:45.551Z,101154.59
2024-05-09T17:14:47.175Z,101150.28
2024-05-09T17:19:48.767Z,101150.91
2024-05-09T17:24:50.384Z,101151.75
2024-05-09T17:29:52.035Z,101151.22
2024-05-09T17:34:53.684Z,101150.41
2024-05-09T17:39:55.390Z,101147.50
2024-05-09T17:44:57.003Z,101153.25
2024-05-09T17:49:58.636Z,101156.22
2024-05-09T17:55:00.533Z,101151.91
2024-05-09T18:00:04.077Z,101142.50
2024-05-09T18:05:14.052Z,101143.72
2024-05-09T18:10:21.989Z,101134.06
2024-05-09T18:15:27.331Z,101146.88
2024-05-09T18:20:37.906Z,101150.47
2024-05-09T18:25:45.586Z,101140.19
2024-05-09T18:30:47.407Z,101144.19
2024-05-09T18:35:49.089Z,101137.25
2024-05-09T18:40:51.074Z,101144.59
2024-05-09T18:45:52.743Z,101149.13
2024-05-09T18:50:54.445Z,101155.22
2024-05-09T18:55:56.103Z,101165.28
2024-05-09T19:00:59.971Z,101173.78
2024-05-09T19:06:03.305Z,101169.09
2024-05-09T19:11:05.110Z,101167.53
2024-05-09T19:16:07.056Z,101174.81
2024-05-09T19:21:08.674Z,101179.72
2024-05-09T19:26:10.280Z,101174.78
2024-05-09T19:31:11.991Z,101176.06
2024-05-09T19:36:13.667Z,101186.38
2024-05-09T19:41:15.266Z,101191.19
2024-05-09T19:46:17.222Z,101189.81
2024-05-09T19:51:18.852Z,101189.22
2024-05-09T19:56:20.999Z,101197.50
2024-05-09T20:01:22.754Z,101200.06
2024-05-09T20:06:26.292Z,101197.94
2024-05-09T20:11:28.013Z,101197.94
2024-05-09T20:16:29.730Z,101201.13
2024-05-09T20:21:31.417Z,101201.81
2024-05-09T20:26:33.036Z,101201.81
2024-05-09T20:31:34.682Z,101208.38
2024-05-09T20:36:36.338Z,101202.94
2024-05-09T20:41:44.258Z,101214.91
2024-05-09T20:46:45.998Z,101209.06
2024-05-09T20:51:47.700Z,101209.47
2024-05-09T20:56:49.344Z,101228.53
2024-05-09T21:01:51.062Z,101227.72
2024-05-09T21:06:52.760Z,101222.91
2024-05-09T21:11:54.470Z,101226.50
2024-05-09T21:16:56.211Z,101235.91
2024-05-09T21:21:57.950Z,101233.78
2024-05-09T21:26:59.602Z,101233.09
2024-05-09T21:32:01.240Z,101225.66
2024-05-09T21:37:02.890Z,101237.38
2024-05-09T21:42:04.747Z,101236.50
2024-05-09T21:47:06.401Z,101232.63
2024-05-09T21:52:08.032Z,101233.47
2024-05-09T21:57:10.081Z,101222.28
2024-05-09T22:02:12.367Z,101236.97
2024-05-09T22:07:14.188Z,101236.41
2024-05-09T22:12:15.904Z,101227.09
2024-05-09T22:17:17.556Z,101235.31
2024-05-09T22:22:20.421Z,101231.78
2024-05-09T22:27:22.041Z,101241.69
2024-05-09T22:32:23.680Z,101230.28
2024-05-09T22:37:25.341Z,101231.16
2024-05-09T22:42:27.089Z,101227.03
2024-05-09T22:47:28.774Z,101234.19
2024-05-09T22:52:30.376Z,101232.94
2024-05-09T22:57:32.191Z,101232.19
2024-05-09T23:02:34.955Z,101231.31
2024-05-09T23:07:36.597Z,101227.34
2024-05-09T23:12:39.362Z,101227.59
2024-05-09T23:17:41.457Z,101218.69
2024-05-09T23:22:43.148Z,101210.28
2024-05-09T23:27:44.781Z,101217.78
2024-05-09T23:32:46.465Z,101211.78
2024-05-09T23:37:48.067Z,101214.09
2024-05-09T23:42:49.794Z,101202.63
2024-05-09T23:47:51.518Z,101211.72
2024-05-09T23:52:53.144Z,101205.06
2024-05-09T23:57:54.758Z,101206.28
